Time;durP1;ratioP1;P1;durP2;ratioP2;P2;SDS_P1;SDS_P2;PMS_P1;PMS_P2;Temp;Humidity;BMP_temperature;BMP_pressure;BME280_temperature;BME280_humidity;BME280_pressure;Samples;Min_cycle;Max_cycle;Signal;HPM_P1;HPM_P2
2022/11/22 00:01:38;;;;;;;0.52;0.30;;;;;;;;;;5032138;28;20517;-69
2022/11/22 00:04:04;;;;;;;1.30;0.50;;;;;;;;;;5030261;28;20037;-71
2022/11/22 00:06:30;;;;;;;5.10;0.80;;;;;;;;;;5036812;28;20053;-70
2022/11/22 00:08:56;;;;;;;1.52;0.63;;;;;;;;;;5008613;28;20056;-72
2022/11/22 00:11:22;;;;;;;2.05;0.50;;;;;;;;;;5031034;28;20069;-69
2022/11/22 00:13:47;;;;;;;1.02;0.60;;;;;;;;;;5018992;28;20083;-70
2022/11/22 00:16:13;;;;;;;2.58;0.60;;;;;;;;;;5036126;28;20057;-69
2022/11/22 00:18:39;;;;;;;1.38;0.50;;;;;;;;;;5024324;28;20840;-70
2022/11/22 00:21:06;;;;;;;0.80;0.40;;;;;;;;;;5032134;28;20053;-69
2022/11/22 00:23:32;;;;;;;0.98;0.50;;;;;;;;;;5039338;28;20111;-71
2022/11/22 00:25:58;;;;;;;0.90;0.30;;;;;;;;;;5035237;28;20045;-69
2022/11/22 00:28:24;;;;;;;0.45;0.30;;;;;;;;;;5028991;28;20063;-70
2022/11/22 00:30:50;;;;;;;2.80;0.40;;;;;;;;;;5036446;28;20068;-69
2022/11/22 00:33:16;;;;;;;1.52;0.50;;;;;;;;;;5035699;28;20049;-67
2022/11/22 00:35:44;;;;;;;0.50;0.30;;;;;;;;;;5034978;28;20542;-68
2022/11/22 00:38:10;;;;;;;0.47;0.45;;;;;;;;;;5014988;28;20167;-69
2022/11/22 00:40:36;;;;;;;0.57;0.50;;;;;;;;;;5028515;28;20068;-70
2022/11/22 00:43:01;;;;;;;2.88;0.50;;;;;;;;;;5037143;28;20048;-72
2022/11/22 00:45:27;;;;;;;2.50;0.45;;;;;;;;;;5037096;28;20533;-69
2022/11/22 00:47:53;;;;;;;0.50;0.30;;;;;;;;;;5032132;28;20063;-71
2022/11/22 00:50:19;;;;;;;1.25;0.50;;;;;;;;;;5026560;28;20049;-71
2022/11/22 00:52:45;;;;;;;1.23;0.50;;;;;;;;;;5020209;28;20262;-70
2022/11/22 00:55:11;;;;;;;1.80;0.45;;;;;;;;;;5034169;28;20060;-67
2022/11/22 00:57:37;;;;;;;1.83;0.65;;;;;;;;;;5027274;28;20426;-68
2022/11/22 01:00:05;;;;;;;2.38;0.60;;;;;;;;;;5004549;28;20049;-69
2022/11/22 01:02:31;;;;;;;1.70;0.43;;;;;;;;;;5031738;28;20071;-69
2022/11/22 01:04:57;;;;;;;1.27;0.70;;;;;;;;;;5030248;28;20052;-70
2022/11/22 01:07:22;;;;;;;0.55;0.45;;;;;;;;;;5033454;28;20064;-69
2022/11/22 01:09:48;;;;;;;1.70;0.40;;;;;;;;;;5028177;28;20316;-68
2022/11/22 01:12:14;;;;;;;0.93;0.40;;;;;;;;;;5032338;28;20053;-68
2022/11/22 01:14:40;;;;;;;2.55;0.32;;;;;;;;;;5031797;28;21259;-68
2022/11/22 01:17:06;;;;;;;1.33;0.55;;;;;;;;;;5027364;28;20816;-70
2022/11/22 01:19:32;;;;;;;2.25;0.60;;;;;;;;;;5010054;28;20053;-69
2022/11/22 01:21:58;;;;;;;0.75;0.40;;;;;;;;;;5032710;28;20110;-70
2022/11/22 01:24:24;;;;;;;1.23;0.60;;;;;;;;;;5031633;28;20319;-72
2022/11/22 01:26:50;;;;;;;0.30;0.30;;;;;;;;;;5031790;28;20102;-68
2022/11/22 01:29:16;;;;;;;1.10;0.50;;;;;;;;;;5026225;28;20053;-68
2022/11/22 01:31:41;;;;;;;1.55;0.47;;;;;;;;;;5026612;28;20110;-69
2022/11/22 01:34:07;;;;;;;4.35;0.47;;;;;;;;;;5025582;28;20633;-69
2022/11/22 01:36:33;;;;;;;1.88;0.73;;;;;;;;;;5029906;28;20053;-70
2022/11/22 01:38:59;;;;;;;0.60;0.47;;;;;;;;;;5024321;28;20352;-67
2022/11/22 01:41:25;;;;;;;1.30;0.50;;;;;;;;;;5029198;28;20144;-69
2022/11/22 01:43:51;;;;;;;1.23;0.45;;;;;;;;;;5027972;28;20052;-67
2022/11/22 01:46:36;;;;;;;1.45;0.43;;;;;;;;;;5029877;28;20074;-70
2022/11/22 01:49:21;;;;;;;1.35;0.43;;;;;;;;;;5021452;28;20060;-67
2022/11/22 01:51:52;;;;;;;1.95;0.70;;;;;;;;;;5025579;28;20126;-68
2022/11/22 01:54:23;;;;;;;2.40;0.50;;;;;;;;;;5034220;28;20082;-68
2022/11/22 01:57:00;;;;;;;5.22;0.60;;;;;;;;;;5011152;28;20113;-68
2022/11/22 01:59:32;;;;;;;5.60;0.60;;;;;;;;;;5027282;28;20060;-67
2022/11/22 02:01:58;;;;;;;0.90;0.43;;;;;;;;;;5032213;28;20178;-70
2022/11/22 02:04:26;;;;;;;1.02;0.30;;;;;;;;;;5030741;28;20049;-67
2022/11/22 02:06:52;;;;;;;1.10;0.60;;;;;;;;;;5028221;28;20580;-69
2022/11/22 02:09:19;;;;;;;0.85;0.60;;;;;;;;;;5022936;28;20451;-70
2022/11/22 02:11:49;;;;;;;0.77;0.40;;;;;;;;;;5028810;28;20149;-69
2022/11/22 02:14:20;;;;;;;1.17;0.50;;;;;;;;;;5028365;28;20738;-68
2022/11/22 02:16:47;;;;;;;1.35;0.30;;;;;;;;;;5030204;28;20064;-69
2022/11/22 02:19:35;;;;;;;3.15;0.68;;;;;;;;;;5026030;28;20064;-67
2022/11/22 02:22:13;;;;;;;4.32;0.85;;;;;;;;;;5032072;28;20491;-69
2022/11/22 02:24:45;;;;;;;3.35;0.60;;;;;;;;;;5033339;28;20529;-67
2022/11/22 02:27:11;;;;;;;2.88;0.73;;;;;;;;;;5029898;28;20053;-68
2022/11/22 02:29:37;;;;;;;0.47;0.30;;;;;;;;;;5020616;28;20413;-70
2022/11/22 02:32:03;;;;;;;0.98;0.43;;;;;;;;;;5027517;28;20045;-68
2022/11/22 02:34:40;;;;;;;2.75;0.57;;;;;;;;;;5031548;28;20109;-68
2022/11/22 02:37:06;;;;;;;2.17;0.60;;;;;;;;;;5033298;28;20068;-68
2022/11/22 02:39:32;;;;;;;1.25;0.60;;;;;;;;;;5024838;28;20044;-71
2022/11/22 02:41:58;;;;;;;1.73;0.50;;;;;;;;;;5033928;28;20480;-70
2022/11/22 02:44:24;;;;;;;1.20;0.50;;;;;;;;;;5027812;28;20049;-67
2022/11/22 02:46:54;;;;;;;2.95;0.70;;;;;;;;;;5036201;28;20086;-70
2022/11/22 02:49:23;;;;;;;1.42;0.73;;;;;;;;;;5003761;28;20076;-68
2022/11/22 02:51:50;;;;;;;1.27;0.50;;;;;;;;;;5037620;28;20078;-69
2022/11/22 02:54:16;;;;;;;1.55;0.70;;;;;;;;;;5033366;28;20923;-68
2022/11/22 02:56:42;;;;;;;1.00;0.50;;;;;;;;;;5028514;28;20480;-70
2022/11/22 02:59:09;;;;;;;3.35;0.70;;;;;;;;;;5022091;28;20053;-70
2022/11/22 03:01:35;;;;;;;1.42;0.50;;;;;;;;;;5026565;28;20466;-69
2022/11/22 03:04:01;;;;;;;2.55;0.60;;;;;;;;;;5032362;28;20067;-66
2022/11/22 03:06:27;;;;;;;2.35;0.77;;;;;;;;;;5028791;28;20048;-67
2022/11/22 03:08:54;;;;;;;3.50;0.50;;;;;;;;;;5021816;28;20060;-69
2022/11/22 03:11:19;;;;;;;3.70;0.65;;;;;;;;;;5013548;28;20044;-68
2022/11/22 03:13:45;;;;;;;2.80;0.60;;;;;;;;;;5011515;28;20532;-67
2022/11/22 03:16:11;;;;;;;1.67;0.77;;;;;;;;;;5023012;28;20041;-68
2022/11/22 03:18:37;;;;;;;1.30;1.00;;;;;;;;;;5021132;28;20148;-68
2022/11/22 03:21:05;;;;;;;2.72;1.63;;;;;;;;;;5027027;28;20060;-68
2022/11/22 03:23:32;;;;;;;3.90;1.60;;;;;;;;;;5033254;28;20059;-70
2022/11/22 03:25:58;;;;;;;3.70;1.40;;;;;;;;;;5030590;28;20140;-68
2022/11/22 03:28:25;;;;;;;2.42;0.95;;;;;;;;;;5027123;28;20510;-66
2022/11/22 03:30:51;;;;;;;2.30;0.70;;;;;;;;;;5029066;28;20040;-68
2022/11/22 03:33:17;;;;;;;2.42;0.60;;;;;;;;;;5029995;28;20072;-68
2022/11/22 03:35:42;;;;;;;2.28;0.70;;;;;;;;;;5030460;28;20087;-66
2022/11/22 03:38:09;;;;;;;3.30;0.60;;;;;;;;;;5024968;28;20578;-69
2022/11/22 03:40:34;;;;;;;1.83;0.70;;;;;;;;;;5024613;28;20052;-69
2022/11/22 03:43:03;;;;;;;1.42;0.63;;;;;;;;;;5032758;28;20490;-68
2022/11/22 03:45:29;;;;;;;2.38;0.65;;;;;;;;;;5037011;28;20057;-68
2022/11/22 03:47:55;;;;;;;2.78;0.80;;;;;;;;;;5034086;28;20059;-68
2022/11/22 03:50:22;;;;;;;2.95;0.52;;;;;;;;;;5028341;28;20048;-67
2022/11/22 03:52:48;;;;;;;2.58;0.85;;;;;;;;;;5015029;28;20060;-67
2022/11/22 03:55:14;;;;;;;1.75;0.70;;;;;;;;;;5038991;28;20056;-67
2022/11/22 03:57:40;;;;;;;2.80;0.70;;;;;;;;;;5013730;28;20672;-66
2022/11/22 04:00:06;;;;;;;2.67;0.60;;;;;;;;;;5025068;28;20041;-68
2022/11/22 04:02:33;;;;;;;1.75;0.60;;;;;;;;;;5030397;28;20060;-67
2022/11/22 04:04:58;;;;;;;2.75;0.57;;;;;;;;;;5038187;28;20063;-67
2022/11/22 04:07:24;;;;;;;2.03;0.90;;;;;;;;;;5014947;28;20068;-69
2022/11/22 04:09:50;;;;;;;0.80;0.50;;;;;;;;;;5007189;28;20053;-69
2022/11/22 04:12:16;;;;;;;1.90;0.70;;;;;;;;;;5032675;28;20048;-67
2022/11/22 04:17:39;;;;;;;2.30;0.60;;;;;;;;;;5034484;28;20079;-71
2022/11/22 04:23:19;;;;;;;0.90;0.60;;;;;;;;;;5035573;28;20494;-66
2022/11/22 04:25:50;;;;;;;1.27;0.70;;;;;;;;;;5034548;28;20159;-69
2022/11/22 04:28:22;;;;;;;1.27;0.80;;;;;;;;;;5025279;28;20733;-69
2022/11/22 04:33:33;;;;;;;1.80;0.70;;;;;;;;;;5034708;28;20040;-69
2022/11/22 04:35:59;;;;;;;4.90;0.82;;;;;;;;;;5016450;28;20044;-68
2022/11/22 04:38:25;;;;;;;2.20;0.90;;;;;;;;;;5028827;28;21441;-69
2022/11/22 04:40:51;;;;;;;2.95;0.70;;;;;;;;;;5033877;28;20049;-67
2022/11/22 04:46:04;;;;;;;4.18;0.80;;;;;;;;;;5033611;28;20053;-68
2022/11/22 04:48:30;;;;;;;1.52;0.55;;;;;;;;;;5030778;28;20134;-70
2022/11/22 04:53:41;;;;;;;3.95;0.93;;;;;;;;;;5031064;28;20056;-69
2022/11/22 04:56:07;;;;;;;2.40;1.10;;;;;;;;;;5035235;28;20091;-71
2022/11/22 04:58:33;;;;;;;3.13;1.10;;;;;;;;;;5026651;28;20766;-70
2022/11/22 05:00:58;;;;;;;2.42;0.90;;;;;;;;;;5025358;28;20077;-70
2022/11/22 05:03:24;;;;;;;4.38;0.85;;;;;;;;;;5037636;28;20060;-69
2022/11/22 05:05:50;;;;;;;2.72;0.70;;;;;;;;;;5036205;28;20077;-70
2022/11/22 05:08:16;;;;;;;2.05;0.63;;;;;;;;;;5027573;28;20596;-66
2022/11/22 05:10:58;;;;;;;2.33;0.75;;;;;;;;;;5027771;28;20128;-66
2022/11/22 05:13:39;;;;;;;1.70;0.55;;;;;;;;;;5030571;28;20056;-69
2022/11/22 05:16:07;;;;;;;1.77;0.60;;;;;;;;;;5031805;28;20036;-68
2022/11/22 05:18:33;;;;;;;1.92;0.63;;;;;;;;;;5027877;28;21955;-68
2022/11/22 05:21:07;;;;;;;2.58;0.57;;;;;;;;;;5028011;28;20064;-68
2022/11/22 05:26:28;;;;;;;2.47;0.70;;;;;;;;;;5032822;28;20060;-67
2022/11/22 05:28:56;;;;;;;0.82;0.50;;;;;;;;;;5024022;28;20064;-68
2022/11/22 05:31:26;;;;;;;2.67;0.77;;;;;;;;;;5033406;28;20048;-66
2022/11/22 05:33:54;;;;;;;2.85;0.95;;;;;;;;;;5024973;28;20052;-67
2022/11/22 05:36:20;;;;;;;3.10;1.20;;;;;;;;;;5028586;28;20049;-66
2022/11/22 05:38:47;;;;;;;2.90;0.73;;;;;;;;;;5023321;28;20053;-71
2022/11/22 05:41:14;;;;;;;1.25;0.70;;;;;;;;;;5002286;28;20095;-65
2022/11/22 05:43:40;;;;;;;4.97;1.33;;;;;;;;;;5031612;28;20056;-66
2022/11/22 05:46:12;;;;;;;3.10;0.80;;;;;;;;;;5011631;28;20060;-69
2022/11/22 05:48:41;;;;;;;2.55;0.93;;;;;;;;;;5023495;28;20544;-68
2022/11/22 05:51:10;;;;;;;3.28;1.10;;;;;;;;;;5033841;28;20048;-66
2022/11/22 05:53:37;;;;;;;2.72;0.90;;;;;;;;;;5033870;28;20052;-69
2022/11/22 05:56:07;;;;;;;3.83;1.00;;;;;;;;;;5036090;28;20600;-71
2022/11/22 05:58:34;;;;;;;2.60;0.95;;;;;;;;;;5031058;28;20122;-69
2022/11/22 06:01:08;;;;;;;3.25;1.10;;;;;;;;;;5035530;28;20064;-67
2022/11/22 06:03:34;;;;;;;;;;;;;;;;;;5035811;28;20474;-67
2022/11/22 06:06:01;;;;;;;4.97;0.93;;;;;;;;;;5029568;28;19970;-68
2022/11/22 06:08:29;;;;;;;3.30;1.08;;;;;;;;;;5027730;28;20053;-68
2022/11/22 06:10:55;;;;;;;3.58;1.13;;;;;;;;;;5033144;28;20343;-68
2022/11/22 06:13:21;;;;;;;3.67;0.60;;;;;;;;;;5030475;28;20494;-67
2022/11/22 06:15:47;;;;;;;4.18;1.00;;;;;;;;;;5025047;28;20083;-68
2022/11/22 06:18:13;;;;;;;4.20;1.00;;;;;;;;;;5021830;28;20064;-70
2022/11/22 06:20:39;;;;;;;2.00;0.80;;;;;;;;;;5025691;28;20048;-68
2022/11/22 06:23:05;;;;;;;4.20;1.00;;;;;;;;;;5034051;28;20470;-67
2022/11/22 06:25:32;;;;;;;2.15;0.60;;;;;;;;;;5027008;28;20045;-69
2022/11/22 06:27:58;;;;;;;3.33;0.90;;;;;;;;;;5026150;28;20899;-68
2022/11/22 06:30:24;;;;;;;1.70;0.75;;;;;;;;;;5006521;28;20055;-69
2022/11/22 06:32:50;;;;;;;3.67;0.90;;;;;;;;;;5017935;28;20053;-69
2022/11/22 06:35:16;;;;;;;2.28;0.73;;;;;;;;;;5027938;28;20877;-68
2022/11/22 06:37:42;;;;;;;4.82;1.00;;;;;;;;;;5007086;28;20191;-71
2022/11/22 06:40:10;;;;;;;5.28;1.25;;;;;;;;;;5020750;28;20100;-71
2022/11/22 06:42:36;;;;;;;2.58;1.05;;;;;;;;;;5036280;28;20048;-72
2022/11/22 06:45:02;;;;;;;4.50;1.27;;;;;;;;;;5031108;28;20082;-72
2022/11/22 06:47:28;;;;;;;5.32;1.30;;;;;;;;;;5027905;28;21371;-71
2022/11/22 06:49:54;;;;;;;4.53;1.30;;;;;;;;;;5025175;28;21368;-73
2022/11/22 06:52:20;;;;;;;3.95;1.42;;;;;;;;;;5031655;28;20520;-70
2022/11/22 06:54:46;;;;;;;3.83;1.38;;;;;;;;;;5030848;28;20048;-66
2022/11/22 06:57:13;;;;;;;3.22;1.20;;;;;;;;;;5027616;28;20053;-68
2022/11/22 06:59:39;;;;;;;7.63;1.27;;;;;;;;;;5023610;28;20107;-70
2022/11/22 07:02:05;;;;;;;2.40;0.95;;;;;;;;;;5029618;28;20056;-73
2022/11/22 07:04:31;;;;;;;5.93;2.28;;;;;;;;;;5027727;28;20049;-70
2022/11/22 07:06:57;;;;;;;3.78;1.30;;;;;;;;;;5030902;28;20044;-70
2022/11/22 07:09:23;;;;;;;3.47;1.02;;;;;;;;;;5023637;28;20063;-68
2022/11/22 07:11:49;;;;;;;8.43;1.20;;;;;;;;;;5028807;28;20044;-68
2022/11/22 07:14:15;;;;;;;4.60;1.10;;;;;;;;;;5033913;28;20055;-69
2022/11/22 07:16:41;;;;;;;4.53;1.30;;;;;;;;;;5031595;28;20147;-69
2022/11/22 07:19:07;;;;;;;9.15;1.55;;;;;;;;;;5026840;28;20052;-70
2022/11/22 07:21:35;;;;;;;4.78;1.10;;;;;;;;;;5034260;28;20045;-70
2022/11/22 07:24:03;;;;;;;3.95;1.13;;;;;;;;;;5038835;28;20055;-69
2022/11/22 07:26:29;;;;;;;7.68;1.50;;;;;;;;;;5029197;28;20060;-69
2022/11/22 07:28:56;;;;;;;4.07;1.40;;;;;;;;;;5028177;28;20055;-71
2022/11/22 07:31:22;;;;;;;6.78;2.00;;;;;;;;;;5018283;28;20052;-68
2022/11/22 07:33:48;;;;;;;11.50;2.20;;;;;;;;;;5036472;28;20925;-69
2022/11/22 07:36:20;;;;;;;7.85;1.90;;;;;;;;;;5032996;28;20053;-69
2022/11/22 07:38:47;;;;;;;4.97;2.00;;;;;;;;;;5024167;28;20106;-69
2022/11/22 07:41:14;;;;;;;5.35;1.73;;;;;;;;;;5025379;28;20049;-70
2022/11/22 07:43:40;;;;;;;5.05;1.90;;;;;;;;;;5026533;28;20163;-75
2022/11/22 07:46:13;;;;;;;10.40;2.45;;;;;;;;;;5035210;28;20048;-71
2022/11/22 07:48:38;;;;;;;6.55;2.00;;;;;;;;;;5034846;28;20057;-68
2022/11/22 07:51:06;;;;;;;5.28;1.75;;;;;;;;;;5015075;28;20098;-71
2022/11/22 07:53:33;;;;;;;5.55;2.00;;;;;;;;;;5032844;28;20040;-71
2022/11/22 07:56:04;;;;;;;4.43;1.67;;;;;;;;;;5037389;28;20136;-69
2022/11/22 07:58:31;;;;;;;7.13;1.70;;;;;;;;;;5025829;28;20300;-68
2022/11/22 08:00:57;;;;;;;8.80;2.05;;;;;;;;;;5031898;28;20083;-71
2022/11/22 08:03:22;;;;;;;8.77;1.80;;;;;;;;;;5039407;28;20056;-67
2022/11/22 08:05:48;;;;;;;9.02;2.15;;;;;;;;;;5033404;28;20060;-70
2022/11/22 08:08:14;;;;;;;6.68;2.35;;;;;;;;;;5029852;28;20049;-71
2022/11/22 08:10:42;;;;;;;6.95;2.47;;;;;;;;;;5008648;28;20544;-69
2022/11/22 08:13:08;;;;;;;7.95;3.88;;;;;;;;;;5032337;28;20103;-69
2022/11/22 08:15:34;;;;;;;7.80;2.67;;;;;;;;;;5021363;28;20047;-68
2022/11/22 08:18:00;;;;;;;10.48;3.05;;;;;;;;;;5027751;28;20052;-69
2022/11/22 08:20:26;;;;;;;10.50;3.00;;;;;;;;;;5025993;28;20762;-69
2022/11/22 08:22:52;;;;;;;9.52;3.40;;;;;;;;;;5031097;28;20227;-66
2022/11/22 08:25:18;;;;;;;7.10;3.15;;;;;;;;;;5034157;28;20598;-71
2022/11/22 08:27:44;;;;;;;10.02;3.70;;;;;;;;;;5024484;28;20407;-67
2022/11/22 08:30:10;;;;;;;13.10;4.22;;;;;;;;;;5031660;28;20060;-71
2022/11/22 08:32:37;;;;;;;13.77;3.90;;;;;;;;;;5036590;28;20714;-70
2022/11/22 08:35:03;;;;;;;9.80;3.95;;;;;;;;;;5041517;28;20169;-73
2022/11/22 08:37:29;;;;;;;9.48;3.00;;;;;;;;;;5033483;28;20993;-69
2022/11/22 08:39:56;;;;;;;7.57;2.20;;;;;;;;;;5031459;28;21437;-71
2022/11/22 08:42:22;;;;;;;3.33;1.83;;;;;;;;;;5011754;28;20109;-72
2022/11/22 08:44:49;;;;;;;5.70;1.95;;;;;;;;;;5024945;28;20613;-71
2022/11/22 08:47:15;;;;;;;3.92;1.27;;;;;;;;;;5013097;28;20056;-68
2022/11/22 08:49:41;;;;;;;5.00;1.60;;;;;;;;;;5027849;28;20056;-72
2022/11/22 08:52:06;;;;;;;8.35;1.60;;;;;;;;;;5026383;28;20045;-70
2022/11/22 08:54:32;;;;;;;4.80;1.35;;;;;;;;;;5026487;28;20060;-70
2022/11/22 08:56:58;;;;;;;4.72;1.30;;;;;;;;;;5011500;28;20049;-68
2022/11/22 08:59:24;;;;;;;3.78;1.27;;;;;;;;;;5029243;28;20946;-67
2022/11/22 09:01:50;;;;;;;6.10;1.40;;;;;;;;;;5035618;28;20675;-68
2022/11/22 09:04:16;;;;;;;4.78;1.40;;;;;;;;;;5028112;28;20502;-69
2022/11/22 09:06:42;;;;;;;5.13;1.33;;;;;;;;;;5018239;28;20059;-69
2022/11/22 09:09:08;;;;;;;3.20;1.30;;;;;;;;;;5028457;28;21542;-68
2022/11/22 09:11:34;;;;;;;5.60;1.48;;;;;;;;;;5033590;28;20080;-69
2022/11/22 09:14:00;;;;;;;7.85;2.00;;;;;;;;;;5038120;28;20109;-73
2022/11/22 09:16:27;;;;;;;5.07;1.60;;;;;;;;;;5033359;28;20056;-68
2022/11/22 09:18:54;;;;;;;3.58;1.02;;;;;;;;;;5028777;28;20418;-68
2022/11/22 09:21:20;;;;;;;4.25;1.30;;;;;;;;;;5033685;28;20098;-68
2022/11/22 09:23:49;;;;;;;5.57;1.67;;;;;;;;;;5030528;28;20045;-70
2022/11/22 09:26:19;;;;;;;4.25;1.17;;;;;;;;;;5030504;28;20079;-68
2022/11/22 09:28:45;;;;;;;4.45;0.90;;;;;;;;;;5029955;28;20053;-67
2022/11/22 09:31:19;;;;;;;6.05;1.08;;;;;;;;;;5035975;28;20048;-69
2022/11/22 09:33:46;;;;;;;4.53;1.30;;;;;;;;;;5036345;28;20111;-66
2022/11/22 09:36:13;;;;;;;11.13;1.13;;;;;;;;;;5034230;28;20076;-73
2022/11/22 09:38:39;;;;;;;6.15;1.20;;;;;;;;;;5030519;28;20044;-70
2022/11/22 09:41:14;;;;;;;3.05;1.10;;;;;;;;;;5036336;28;20059;-69
2022/11/22 09:44:19;;;;;;;4.55;1.35;;;;;;;;;;5037175;28;20455;-68
2022/11/22 09:46:57;;;;;;;2.67;0.90;;;;;;;;;;5001620;28;20105;-68
2022/11/22 09:49:28;;;;;;;3.60;0.98;;;;;;;;;;5030104;28;20057;-70
2022/11/22 09:52:08;;;;;;;3.28;0.82;;;;;;;;;;5032839;28;20048;-67
2022/11/22 09:54:49;;;;;;;7.50;1.00;;;;;;;;;;5035025;28;20041;-69
2022/11/22 09:57:24;;;;;;;3.50;0.73;;;;;;;;;;5030873;28;20068;-68
2022/11/22 09:59:58;;;;;;;3.50;1.10;;;;;;;;;;5029234;28;20044;-71
2022/11/22 10:02:33;;;;;;;4.88;0.98;;;;;;;;;;5029834;28;20099;-68
2022/11/22 10:05:04;;;;;;;2.72;0.75;;;;;;;;;;5032172;28;20053;-69
2022/11/22 10:08:10;;;;;;;1.90;0.90;;;;;;;;;;5030520;28;20122;-69
2022/11/22 10:10:50;;;;;;;2.78;0.85;;;;;;;;;;5028398;28;20615;-70
2022/11/22 10:13:39;;;;;;;5.28;1.02;;;;;;;;;;5027426;28;20135;-68
2022/11/22 10:16:37;;;;;;;1.98;0.90;;;;;;;;;;5020941;28;20049;-67
2022/11/22 10:19:12;;;;;;;3.75;1.13;;;;;;;;;;5023387;28;20049;-69
2022/11/22 10:21:39;;;;;;;6.15;1.10;;;;;;;;;;5034151;28;20045;-70
2022/11/22 10:24:05;;;;;;;3.88;0.80;;;;;;;;;;5036325;28;20122;-71
2022/11/22 10:26:33;;;;;;;2.95;0.73;;;;;;;;;;5033070;28;20049;-69
2022/11/22 10:28:59;;;;;;;1.98;0.80;;;;;;;;;;5033152;28;20080;-68
2022/11/22 10:31:35;;;;;;;3.22;0.90;;;;;;;;;;5000303;28;20060;-69
2022/11/22 10:34:20;;;;;;;3.40;0.88;;;;;;;;;;5031322;28;20049;-70
2022/11/22 10:36:53;;;;;;;4.70;0.90;;;;;;;;;;5034925;28;20045;-68
2022/11/22 10:39:40;;;;;;;6.00;1.00;;;;;;;;;;5027293;28;20103;-68
2022/11/22 10:42:28;;;;;;;2.13;1.08;;;;;;;;;;5028206;28;20055;-70
2022/11/22 10:45:09;;;;;;;7.25;1.20;;;;;;;;;;5034178;28;20209;-70
2022/11/22 10:48:03;;;;;;;6.35;1.30;;;;;;;;;;5030748;28;20118;-68
2022/11/22 10:50:52;;;;;;;3.50;1.20;;;;;;;;;;5029460;28;20052;-68
2022/11/22 10:53:32;;;;;;;4.93;1.45;;;;;;;;;;5034874;28;20101;-68
2022/11/22 10:56:28;;;;;;;4.90;1.00;;;;;;;;;;5030582;28;20052;-69
2022/11/22 10:59:03;;;;;;;5.18;1.20;;;;;;;;;;5030940;28;20131;-69
2022/11/22 11:01:58;;;;;;;1.92;1.02;;;;;;;;;;5030591;28;20048;-69
2022/11/22 11:04:30;;;;;;;4.55;1.00;;;;;;;;;;5034561;28;20687;-67
2022/11/22 11:06:59;;;;;;;3.40;0.98;;;;;;;;;;5041122;28;20045;-68
2022/11/22 11:09:47;;;;;;;3.30;0.85;;;;;;;;;;5037096;28;20044;-69
2022/11/22 11:12:24;;;;;;;3.83;1.00;;;;;;;;;;5035951;28;20726;-68
2022/11/22 11:15:03;;;;;;;5.65;0.93;;;;;;;;;;5034781;28;20400;-70
2022/11/22 11:17:34;;;;;;;4.80;0.70;;;;;;;;;;5036953;28;20516;-69
2022/11/22 11:20:06;;;;;;;4.65;1.00;;;;;;;;;;5037673;28;20067;-72
2022/11/22 11:22:33;;;;;;;4.15;0.90;;;;;;;;;;5035531;28;20243;-70
2022/11/22 11:25:28;;;;;;;3.05;0.93;;;;;;;;;;5038961;28;20524;-67
2022/11/22 11:27:58;;;;;;;3.80;0.77;;;;;;;;;;5033769;28;20061;-68
2022/11/22 11:30:24;;;;;;;1.58;0.57;;;;;;;;;;5033620;28;20856;-71
2022/11/22 11:32:55;;;;;;;3.30;1.00;;;;;;;;;;5033639;28;20504;-69
2022/11/22 11:35:26;;;;;;;3.42;0.80;;;;;;;;;;5037142;28;20322;-71
2022/11/22 11:37:51;;;;;;;4.63;1.02;;;;;;;;;;5036462;28;20903;-69
2022/11/22 11:40:29;;;;;;;5.32;0.95;;;;;;;;;;5034928;28;20052;-69
2022/11/22 11:43:20;;;;;;;3.92;0.90;;;;;;;;;;5025377;28;20052;-71
2022/11/22 11:45:46;;;;;;;5.82;0.90;;;;;;;;;;5023366;28;20688;-69
2022/11/22 11:48:27;;;;;;;4.93;0.75;;;;;;;;;;5035067;28;20064;-70
2022/11/22 11:51:21;;;;;;;4.82;1.13;;;;;;;;;;5029825;28;20667;-74
2022/11/22 11:53:58;;;;;;;4.18;1.00;;;;;;;;;;5032233;28;20348;-68
2022/11/22 11:56:32;;;;;;;3.08;0.77;;;;;;;;;;5036671;28;21620;-71
2022/11/22 11:59:02;;;;;;;5.57;1.00;;;;;;;;;;5030062;28;20170;-68
2022/11/22 12:01:34;;;;;;;5.50;1.10;;;;;;;;;;5037437;28;20052;-70
2022/11/22 12:04:03;;;;;;;6.43;1.67;;;;;;;;;;5039908;28;20075;-68
2022/11/22 12:06:30;;;;;;;3.20;0.88;;;;;;;;;;5028997;28;20132;-69
2022/11/22 12:08:58;;;;;;;2.03;0.98;;;;;;;;;;5025713;28;20131;-68
2022/11/22 12:11:30;;;;;;;4.85;1.20;;;;;;;;;;5041677;28;20056;-68
2022/11/22 12:14:00;;;;;;;2.85;1.00;;;;;;;;;;5033194;28;20063;-67
2022/11/22 12:16:49;;;;;;;5.60;1.17;;;;;;;;;;5030629;28;20113;-68
2022/11/22 12:19:43;;;;;;;5.05;1.20;;;;;;;;;;5030670;28;20061;-69
2022/11/22 12:22:18;;;;;;;4.68;0.93;;;;;;;;;;5041237;28;20261;-72
2022/11/22 12:24:58;;;;;;;3.88;0.98;;;;;;;;;;5032519;28;20053;-72
2022/11/22 12:27:24;;;;;;;3.28;0.80;;;;;;;;;;5036604;28;20417;-70
2022/11/22 12:29:52;;;;;;;7.47;1.10;;;;;;;;;;5030169;28;20036;-70
2022/11/22 12:32:24;;;;;;;6.97;0.88;;;;;;;;;;5035389;28;20211;-72
2022/11/22 12:35:13;;;;;;;3.33;0.70;;;;;;;;;;5034577;28;20552;-68
2022/11/22 12:37:42;;;;;;;5.25;1.17;;;;;;;;;;5038481;28;20045;-70
2022/11/22 12:40:48;;;;;;;6.28;1.00;;;;;;;;;;5012834;28;20696;-72
2022/11/22 12:43:23;;;;;;;5.78;1.08;;;;;;;;;;5032860;28;20057;-72
2022/11/22 12:45:52;;;;;;;5.90;1.10;;;;;;;;;;5034236;28;20131;-72
2022/11/22 12:48:43;;;;;;;7.75;1.10;;;;;;;;;;5032661;28;20439;-73
2022/11/22 12:51:23;;;;;;;3.03;0.90;;;;;;;;;;5034072;28;20061;-74
2022/11/22 12:53:51;;;;;;;3.72;1.10;;;;;;;;;;5029330;28;20052;-69
2022/11/22 12:56:26;;;;;;;9.23;1.20;;;;;;;;;;5033732;28;20494;-68
2022/11/22 12:59:18;;;;;;;7.13;1.10;;;;;;;;;;5027681;28;20601;-69
2022/11/22 13:02:14;;;;;;;6.22;1.00;;;;;;;;;;5038283;28;20059;-70
2022/11/22 13:05:04;;;;;;;5.15;0.90;;;;;;;;;;5035122;28;20056;-70
2022/11/22 13:08:12;;;;;;;5.07;0.80;;;;;;;;;;5034233;28;20057;-69
2022/11/22 13:10:50;;;;;;;3.00;1.00;;;;;;;;;;5012900;28;20925;-70
2022/11/22 13:13:25;;;;;;;3.95;0.85;;;;;;;;;;5038705;28;20101;-70
2022/11/22 13:15:53;;;;;;;3.45;1.00;;;;;;;;;;5036527;28;20697;-71
2022/11/22 13:18:22;;;;;;;4.28;0.75;;;;;;;;;;5030710;28;20515;-74
2022/11/22 13:21:13;;;;;;;2.25;0.77;;;;;;;;;;5029254;28;20056;-72
2022/11/22 13:24:13;;;;;;;4.75;1.20;;;;;;;;;;5036966;28;20472;-68
2022/11/22 13:27:08;;;;;;;5.10;0.85;;;;;;;;;;5032802;28;20406;-70
2022/11/22 13:29:35;;;;;;;3.10;1.10;;;;;;;;;;5029928;28;20048;-71
2022/11/22 13:32:10;;;;;;;3.03;0.80;;;;;;;;;;5033394;28;20237;-72
2022/11/22 13:34:40;;;;;;;4.32;1.10;;;;;;;;;;5032301;28;20835;-70
2022/11/22 13:37:13;;;;;;;6.40;0.90;;;;;;;;;;5036163;28;20596;-70
2022/11/22 13:39:49;;;;;;;3.53;1.20;;;;;;;;;;5030499;28;20163;-71
2022/11/22 13:42:22;;;;;;;4.25;1.10;;;;;;;;;;5036768;28;20060;-73
2022/11/22 13:44:51;;;;;;;3.25;0.85;;;;;;;;;;5032578;28;20045;-69
2022/11/22 13:47:23;;;;;;;4.90;1.05;;;;;;;;;;5033660;28;20095;-69
2022/11/22 13:49:52;;;;;;;2.97;1.08;;;;;;;;;;5024484;28;20140;-70
2022/11/22 13:52:28;;;;;;;5.57;1.20;;;;;;;;;;5021719;28;20115;-71
2022/11/22 13:54:56;;;;;;;10.68;1.75;;;;;;;;;;5033911;28;20435;-72
2022/11/22 13:57:33;;;;;;;3.63;1.45;;;;;;;;;;5014899;28;20045;-69
2022/11/22 14:00:14;;;;;;;5.28;1.23;;;;;;;;;;5027003;28;20075;-72
2022/11/22 14:02:43;;;;;;;3.15;1.08;;;;;;;;;;5031595;28;20515;-73
2022/11/22 14:05:23;;;;;;;3.67;0.90;;;;;;;;;;5028772;28;20059;-71
2022/11/22 14:07:51;;;;;;;3.25;0.98;;;;;;;;;;5032457;28;20576;-69
2022/11/22 14:10:29;;;;;;;2.17;0.90;;;;;;;;;;5027567;28;20048;-69
2022/11/22 14:13:07;;;;;;;4.05;1.10;;;;;;;;;;5034985;28;20060;-68
2022/11/22 14:15:52;;;;;;;2.70;1.20;;;;;;;;;;5035435;28;20056;-70
2022/11/22 14:18:34;;;;;;;4.68;1.40;;;;;;;;;;5030966;28;20053;-69
2022/11/22 14:21:06;;;;;;;5.20;1.23;;;;;;;;;;5033328;28;20056;-71
2022/11/22 14:23:56;;;;;;;5.00;0.93;;;;;;;;;;5034109;28;20682;-73
2022/11/22 14:26:46;;;;;;;13.55;1.17;;;;;;;;;;5019355;28;20056;-73
2022/11/22 14:29:41;;;;;;;10.07;1.17;;;;;;;;;;5034624;28;20754;-73
2022/11/22 14:32:15;;;;;;;4.40;1.20;;;;;;;;;;5037007;28;20057;-73
2022/11/22 14:35:04;;;;;;;8.00;1.10;;;;;;;;;;5021870;28;20450;-71
2022/11/22 14:37:33;;;;;;;5.22;1.40;;;;;;;;;;5031199;28;20455;-70
2022/11/22 14:40:05;;;;;;;3.05;1.17;;;;;;;;;;5029897;28;20880;-72
2022/11/22 14:42:38;;;;;;;4.18;1.23;;;;;;;;;;5040221;28;20056;-73
2022/11/22 14:45:10;;;;;;;1.67;0.90;;;;;;;;;;5040643;28;20064;-72
2022/11/22 14:47:50;;;;;;;7.18;1.33;;;;;;;;;;5035179;28;20045;-72
2022/11/22 14:50:22;;;;;;;3.63;1.00;;;;;;;;;;5030821;28;20541;-70
2022/11/22 14:52:49;;;;;;;4.65;1.00;;;;;;;;;;5016151;28;20493;-70
2022/11/22 14:55:25;;;;;;;4.55;1.42;;;;;;;;;;5036324;28;20060;-71
2022/11/22 14:57:57;;;;;;;2.67;1.10;;;;;;;;;;5029312;28;20053;-72
2022/11/22 15:00:26;;;;;;;3.70;1.08;;;;;;;;;;5011692;28;20413;-74
2022/11/22 15:03:08;;;;;;;4.38;1.00;;;;;;;;;;5028468;28;20395;-70
2022/11/22 15:05:37;;;;;;;4.07;1.17;;;;;;;;;;5035587;28;20045;-73
2022/11/22 15:08:17;;;;;;;4.78;0.90;;;;;;;;;;5030995;28;20475;-71
2022/11/22 15:11:01;;;;;;;2.90;0.85;;;;;;;;;;5033045;28;20446;-72
2022/11/22 15:13:48;;;;;;;6.47;1.30;;;;;;;;;;5031716;28;20506;-70
2022/11/22 15:16:20;;;;;;;5.28;1.30;;;;;;;;;;5029187;28;20306;-71
2022/11/22 15:18:49;;;;;;;6.28;1.10;;;;;;;;;;5028845;28;20053;-70
2022/11/22 15:21:23;;;;;;;3.17;1.45;;;;;;;;;;5024108;28;20383;-73
2022/11/22 15:23:49;;;;;;;5.22;1.23;;;;;;;;;;5029652;28;20219;-72